sensor_id;sensor_type;location;lat;lon;timestamp;pressure;altitude;pressure_sealevel;temperature;humidity
46223;BME280;31943;51.410;7.564;2022-08-21T00:01:30;100412.66;;;18.14;60.94
46223;BME280;31943;51.410;7.564;2022-08-21T00:03:56;100411.84;;;18.09;61.06
46223;BME280;31943;51.410;7.564;2022-08-21T00:06:22;100418.06;;;18.06;61.18
46223;BME280;31943;51.410;7.564;2022-08-21T00:08:50;100419.00;;;18.04;61.30
46223;BME280;31943;51.410;7.564;2022-08-21T00:11:16;100416.38;;;18.02;60.90
46223;BME280;31943;51.410;7.564;2022-08-21T00:13:42;100415.53;;;18.00;61.19
46223;BME280;31943;51.410;7.564;2022-08-21T00:16:08;100412.03;;;18.00;61.48
46223;BME280;31943;51.410;7.564;2022-08-21T00:18:33;100404.13;;;17.98;61.57
46223;BME280;31943;51.410;7.564;2022-08-21T00:20:59;100406.78;;;17.96;61.21
46223;BME280;31943;51.410;7.564;2022-08-21T00:23:24;100393.63;;;17.93;61.33
46223;BME280;31943;51.410;7.564;2022-08-21T00:25:51;100406.00;;;17.91;61.12
46223;BME280;31943;51.410;7.564;2022-08-21T00:28:17;100405.16;;;17.89;61.15
46223;BME280;31943;51.410;7.564;2022-08-21T00:30:43;100398.16;;;17.87;61.35
46223;BME280;31943;51.410;7.564;2022-08-21T00:33:10;100394.66;;;17.83;61.26
46223;BME280;31943;51.410;7.564;2022-08-21T00:35:38;100399.09;;;17.83;61.46
46223;BME280;31943;51.410;7.564;2022-08-21T00:38:07;100398.22;;;17.84;61.51
46223;BME280;31943;51.410;7.564;2022-08-21T00:40:35;100391.19;;;17.81;61.50
46223;BME280;31943;51.410;7.564;2022-08-21T00:43:06;100392.97;;;17.81;61.10
46223;BME280;31943;51.410;7.564;2022-08-21T00:45:33;100387.78;;;17.76;61.25
46223;BME280;31943;51.410;7.564;2022-08-21T00:47:59;100388.69;;;17.73;61.33
46223;BME280;31943;51.410;7.564;2022-08-21T00:50:28;100389.63;;;17.71;61.32
46223;BME280;31943;51.410;7.564;2022-08-21T00:52:55;100389.66;;;17.68;61.31
46223;BME280;31943;51.410;7.564;2022-08-21T00:55:23;100385.31;;;17.64;61.47
46223;BME280;31943;51.410;7.564;2022-08-21T00:57:52;100389.75;;;17.63;61.34
46223;BME280;31943;51.410;7.564;2022-08-21T01:00:24;100390.66;;;17.62;61.47
46223;BME280;31943;51.410;7.564;2022-08-21T01:02:49;100384.50;;;17.60;61.47
46223;BME280;31943;51.410;7.564;2022-08-21T01:05:15;100384.56;;;17.58;61.79
46223;BME280;31943;51.410;7.564;2022-08-21T01:07:41;100376.59;;;17.60;61.63
46223;BME280;31943;51.410;7.564;2022-08-21T01:10:08;100370.50;;;17.56;61.53
46223;BME280;31943;51.410;7.564;2022-08-21T01:12:34;100374.09;;;17.52;61.40
46223;BME280;31943;51.410;7.564;2022-08-21T01:15:04;100375.03;;;17.48;61.60
46223;BME280;31943;51.410;7.564;2022-08-21T01:17:32;100379.41;;;17.49;61.49
46223;BME280;31943;51.410;7.564;2022-08-21T01:19:59;100375.94;;;17.47;61.40
46223;BME280;31943;51.410;7.564;2022-08-21T01:22:26;100384.72;;;17.46;61.15
46223;BME280;31943;51.410;7.564;2022-08-21T01:24:52;100380.38;;;17.44;61.63
46223;BME280;31943;51.410;7.564;2022-08-21T01:27:18;100387.41;;;17.45;61.73
46223;BME280;31943;51.410;7.564;2022-08-21T01:29:47;100389.16;;;17.44;61.68
46223;BME280;31943;51.410;7.564;2022-08-21T01:32:19;100383.88;;;17.46;62.02
46223;BME280;31943;51.410;7.564;2022-08-21T01:34:47;100384.72;;;17.46;62.09
46223;BME280;31943;51.410;7.564;2022-08-21T01:37:15;100387.34;;;17.48;62.16
46223;BME280;31943;51.410;7.564;2022-08-21T01:39:43;100384.72;;;17.48;62.05
46223;BME280;31943;51.410;7.564;2022-08-21T01:42:09;100387.34;;;17.48;62.21
46223;BME280;31943;51.410;7.564;2022-08-21T01:44:34;100390.84;;;17.48;62.32
46223;BME280;31943;51.410;7.564;2022-08-21T01:47:05;100388.22;;;17.48;62.38
46223;BME280;31943;51.410;7.564;2022-08-21T01:49:31;100384.69;;;17.49;62.59
46223;BME280;31943;51.410;7.564;2022-08-21T01:51:57;100387.25;;;17.54;63.01
46223;BME280;31943;51.410;7.564;2022-08-21T01:54:23;100376.66;;;17.57;62.86
46223;BME280;31943;51.410;7.564;2022-08-21T01:56:52;100382.78;;;17.57;63.43
46223;BME280;31943;51.410;7.564;2022-08-21T01:59:18;100378.38;;;17.58;63.51
46223;BME280;31943;51.410;7.564;2022-08-21T02:01:43;100374.84;;;17.61;63.61
46223;BME280;31943;51.410;7.564;2022-08-21T02:04:10;100382.75;;;17.62;63.47
46223;BME280;31943;51.410;7.564;2022-08-21T02:06:36;100377.41;;;17.64;63.58
46223;BME280;31943;51.410;7.564;2022-08-21T02:09:03;100377.38;;;17.67;63.48
46223;BME280;31943;51.410;7.564;2022-08-21T02:11:30;100372.94;;;17.67;63.75
46223;BME280;31943;51.410;7.564;2022-08-21T02:13:59;100373.81;;;17.68;63.89
46223;BME280;31943;51.410;7.564;2022-08-21T02:16:24;100374.66;;;17.70;63.82
46223;BME280;31943;51.410;7.564;2022-08-21T02:18:50;100367.66;;;17.69;63.94
46223;BME280;31943;51.410;7.564;2022-08-21T02:21:16;100364.09;;;17.70;63.92
46223;BME280;31943;51.410;7.564;2022-08-21T02:23:41;100368.47;;;17.72;64.02
46223;BME280;31943;51.410;7.564;2022-08-21T02:26:08;100368.47;;;17.74;63.99
46223;BME280;31943;51.410;7.564;2022-08-21T02:28:35;100360.56;;;17.72;64.12
46223;BME280;31943;51.410;7.564;2022-08-21T02:31:03;100360.56;;;17.72;63.92
46223;BME280;31943;51.410;7.564;2022-08-21T02:33:28;100364.94;;;17.72;64.12
46223;BME280;31943;51.410;7.564;2022-08-21T02:35:55;100358.81;;;17.71;64.13
46223;BME280;31943;51.410;7.564;2022-08-21T02:38:24;100359.66;;;17.73;63.96
46223;BME280;31943;51.410;7.564;2022-08-21T02:40:51;100362.31;;;17.72;63.95
46223;BME280;31943;51.410;7.564;2022-08-21T02:43:17;100364.09;;;17.70;64.37
46223;BME280;31943;51.410;7.564;2022-08-21T02:45:44;100357.97;;;17.68;64.21
46223;BME280;31943;51.410;7.564;2022-08-21T02:48:14;100361.53;;;17.67;63.84
46223;BME280;31943;51.410;7.564;2022-08-21T02:50:42;100363.34;;;17.65;64.06
46223;BME280;31943;51.410;7.564;2022-08-21T02:53:10;100360.69;;;17.65;63.88
46223;BME280;31943;51.410;7.564;2022-08-21T02:55:36;100362.50;;;17.63;63.82
46223;BME280;31943;51.410;7.564;2022-08-21T02:58:04;100356.38;;;17.61;63.67
46223;BME280;31943;51.410;7.564;2022-08-21T03:00:31;100354.69;;;17.56;63.91
46223;BME280;31943;51.410;7.564;2022-08-21T03:02:57;100357.34;;;17.55;64.04
46223;BME280;31943;51.410;7.564;2022-08-21T03:05:27;100353.00;;;17.51;63.57
46223;BME280;31943;51.410;7.564;2022-08-21T03:07:54;100346.91;;;17.49;63.79
46223;BME280;31943;51.410;7.564;2022-08-21T03:10:21;100347.88;;;17.43;63.12
46223;BME280;31943;51.410;7.564;2022-08-21T03:12:47;100347.03;;;17.41;63.45
46223;BME280;31943;51.410;7.564;2022-08-21T03:15:16;100348.78;;;17.41;63.12
46223;BME280;31943;51.410;7.564;2022-08-21T03:17:42;100353.25;;;17.35;63.36
46223;BME280;31943;51.410;7.564;2022-08-21T03:20:08;100353.31;;;17.32;63.19
46223;BME280;31943;51.410;7.564;2022-08-21T03:22:36;100356.00;;;17.31;62.88
46223;BME280;31943;51.410;7.564;2022-08-21T03:25:02;100360.38;;;17.29;63.06
46223;BME280;31943;51.410;7.564;2022-08-21T03:27:28;100356.03;;;17.26;62.84
46223;BME280;31943;51.410;7.564;2022-08-21T03:29:54;100354.38;;;17.20;62.53
46223;BME280;31943;51.410;7.564;2022-08-21T03:32:20;100343.91;;;17.16;62.45
46223;BME280;31943;51.410;7.564;2022-08-21T03:34:46;100349.22;;;17.13;62.55
46223;BME280;31943;51.410;7.564;2022-08-21T03:37:15;100352.75;;;17.12;62.70
46223;BME280;31943;51.410;7.564;2022-08-21T03:39:43;100345.78;;;17.09;62.71
46223;BME280;31943;51.410;7.564;2022-08-21T03:42:09;100355.50;;;17.06;62.44
46223;BME280;31943;51.410;7.564;2022-08-21T03:44:35;100351.16;;;17.02;62.49
46223;BME280;31943;51.410;7.564;2022-08-21T03:47:01;100354.69;;;16.99;62.67
46223;BME280;31943;51.410;7.564;2022-08-21T03:49:27;100353.84;;;16.95;62.58
46223;BME280;31943;51.410;7.564;2022-08-21T03:51:53;100349.50;;;16.93;62.70
46223;BME280;31943;51.410;7.564;2022-08-21T03:54:19;100356.56;;;16.91;62.41
46223;BME280;31943;51.410;7.564;2022-08-21T03:56:47;100358.34;;;16.89;62.53
46223;BME280;31943;51.410;7.564;2022-08-21T03:59:14;100358.44;;;16.84;62.17
46223;BME280;31943;51.410;7.564;2022-08-21T04:01:40;100358.44;;;16.79;61.96
46223;BME280;31943;51.410;7.564;2022-08-21T04:04:15;100356.75;;;16.75;62.01
46223;BME280;31943;51.410;7.564;2022-08-21T04:06:41;100356.81;;;16.72;62.48
46223;BME280;31943;51.410;7.564;2022-08-21T04:09:06;100364.75;;;16.69;62.30
46223;BME280;31943;51.410;7.564;2022-08-21T04:11:32;100370.91;;;16.68;62.37
46223;BME280;31943;51.410;7.564;2022-08-21T04:13:59;100367.44;;;16.65;62.24
46223;BME280;31943;51.410;7.564;2022-08-21T04:16:25;100366.59;;;16.61;62.21
46223;BME280;31943;51.410;7.564;2022-08-21T04:18:50;100371.03;;;16.59;61.93
46223;BME280;31943;51.410;7.564;2022-08-21T04:21:16;100371.97;;;16.53;61.59
46223;BME280;31943;51.410;7.564;2022-08-21T04:23:41;100375.47;;;16.52;61.73
46223;BME280;31943;51.410;7.564;2022-08-21T04:26:07;100371.16;;;16.48;62.03
46223;BME280;31943;51.410;7.564;2022-08-21T04:28:32;100371.19;;;16.47;61.92
46223;BME280;31943;51.410;7.564;2022-08-21T04:31:00;100370.34;;;16.45;62.08
46223;BME280;31943;51.410;7.564;2022-08-21T04:33:25;100379.13;;;16.44;61.76
46223;BME280;31943;51.410;7.564;2022-08-21T04:35:51;100374.78;;;16.38;61.79
46223;BME280;31943;51.410;7.564;2022-08-21T04:38:17;100376.56;;;16.37;61.78
46223;BME280;31943;51.410;7.564;2022-08-21T04:40:43;100374.84;;;16.33;61.83
46223;BME280;31943;51.410;7.564;2022-08-21T04:43:10;100380.09;;;16.35;61.68
46223;BME280;31943;51.410;7.564;2022-08-21T04:45:37;100378.34;;;16.32;61.85
46223;BME280;31943;51.410;7.564;2022-08-21T04:48:07;100378.41;;;16.29;61.58
46223;BME280;31943;51.410;7.564;2022-08-21T04:50:37;100369.66;;;16.27;61.89
46223;BME280;31943;51.410;7.564;2022-08-21T04:53:05;100370.53;;;16.28;61.68
46223;BME280;31943;51.410;7.564;2022-08-21T04:55:32;100376.66;;;16.27;61.86
46223;BME280;31943;51.410;7.564;2022-08-21T04:57:57;100376.72;;;16.25;62.01
46223;BME280;31943;51.410;7.564;2022-08-21T05:00:24;100389.88;;;16.25;62.18
46223;BME280;31943;51.410;7.564;2022-08-21T05:02:51;100377.59;;;16.24;62.29
46223;BME280;31943;51.410;7.564;2022-08-21T05:05:20;100377.59;;;16.24;62.29
46223;BME280;31943;51.410;7.564;2022-08-21T05:07:46;100372.31;;;16.23;62.64
46223;BME280;31943;51.410;7.564;2022-08-21T05:10:12;100372.31;;;16.23;62.74
46223;BME280;31943;51.410;7.564;2022-08-21T05:12:39;100382.84;;;16.24;62.78
46223;BME280;31943;51.410;7.564;2022-08-21T05:15:11;100372.28;;;16.27;62.92
46223;BME280;31943;51.410;7.564;2022-08-21T05:17:36;100377.56;;;16.27;62.97
46223;BME280;31943;51.410;7.564;2022-08-21T05:20:03;100379.28;;;16.28;63.22
46223;BME280;31943;51.410;7.564;2022-08-21T05:22:30;100388.03;;;16.30;63.36
46223;BME280;31943;51.410;7.564;2022-08-21T05:24:57;100381.88;;;16.33;63.20
46223;BME280;31943;51.410;7.564;2022-08-21T05:27:22;100382.75;;;16.33;63.40
46223;BME280;31943;51.410;7.564;2022-08-21T05:29:48;100385.38;;;16.33;63.29
46223;BME280;31943;51.410;7.564;2022-08-21T05:32:14;100393.28;;;16.33;63.36
46223;BME280;31943;51.410;7.564;2022-08-21T05:34:39;100392.34;;;16.37;63.48
46223;BME280;31943;51.410;7.564;2022-08-21T05:37:05;100394.06;;;16.40;63.84
46223;BME280;31943;51.410;7.564;2022-08-21T05:39:33;100391.44;;;16.41;63.79
46223;BME280;31943;51.410;7.564;2022-08-21T05:41:58;100387.00;;;16.44;63.93
46223;BME280;31943;51.410;7.564;2022-08-21T05:44:24;100390.47;;;16.49;63.96
46223;BME280;31943;51.410;7.564;2022-08-21T05:46:49;100385.13;;;16.53;64.26
46223;BME280;31943;51.410;7.564;2022-08-21T05:49:15;100386.84;;;16.56;64.31
46223;BME280;31943;51.410;7.564;2022-08-21T05:51:41;100389.47;;;16.59;64.49
46223;BME280;31943;51.410;7.564;2022-08-21T05:54:07;100395.56;;;16.63;64.64
46223;BME280;31943;51.410;7.564;2022-08-21T05:56:34;100391.16;;;16.66;64.69
46223;BME280;31943;51.410;7.564;2022-08-21T05:58:59;100388.44;;;16.71;64.62
46223;BME280;31943;51.410;7.564;2022-08-21T06:01:25;100388.34;;;16.77;64.71
46223;BME280;31943;51.410;7.564;2022-08-21T06:03:50;100386.56;;;16.80;64.35
46223;BME280;31943;51.410;7.564;2022-08-21T06:06:16;100381.22;;;16.87;64.48
46223;BME280;31943;51.410;7.564;2022-08-21T06:08:42;100379.44;;;16.90;64.42
46223;BME280;31943;51.410;7.564;2022-08-21T06:11:08;100379.38;;;16.93;64.39
46223;BME280;31943;51.410;7.564;2022-08-21T06:13:36;100387.22;;;16.98;64.40
46223;BME280;31943;51.410;7.564;2022-08-21T06:16:07;100386.28;;;17.02;64.62
46223;BME280;31943;51.410;7.564;2022-08-21T06:18:34;100386.22;;;17.05;64.81
46223;BME280;31943;51.410;7.564;2022-08-21T06:21:00;100386.16;;;17.11;64.59
46223;BME280;31943;51.410;7.564;2022-08-21T06:23:26;100378.19;;;17.16;64.80
46223;BME280;31943;51.410;7.564;2022-08-21T06:25:51;100379.84;;;17.22;64.81
46223;BME280;31943;51.410;7.564;2022-08-21T06:28:18;100381.56;;;17.26;64.92
46223;BME280;31943;51.410;7.564;2022-08-21T06:30:46;100385.84;;;17.33;64.70
46223;BME280;31943;51.410;7.564;2022-08-21T06:33:11;100376.06;;;17.39;64.73
46223;BME280;31943;51.410;7.564;2022-08-21T06:35:37;100375.09;;;17.45;64.37
46223;BME280;31943;51.410;7.564;2022-08-21T06:38:03;100377.59;;;17.54;64.41
46223;BME280;31943;51.410;7.564;2022-08-21T06:40:29;100369.47;;;17.65;64.17
46223;BME280;31943;51.410;7.564;2022-08-21T06:42:55;100371.13;;;17.72;63.79
46223;BME280;31943;51.410;7.564;2022-08-21T06:45:21;100370.16;;;17.78;63.84
46223;BME280;31943;51.410;7.564;2022-08-21T06:47:49;100367.31;;;17.89;63.67
46223;BME280;31943;51.410;7.564;2022-08-21T06:50:14;100368.94;;;17.97;63.41
46223;BME280;31943;51.410;7.564;2022-08-21T06:52:40;100366.13;;;18.05;63.54
46223;BME280;31943;51.410;7.564;2022-08-21T06:55:07;100369.53;;;18.12;63.94
46223;BME280;31943;51.410;7.564;2022-08-21T06:57:33;100364.31;;;18.09;64.09
46223;BME280;31943;51.410;7.564;2022-08-21T06:59:59;100378.41;;;18.09;63.91
46223;BME280;31943;51.410;7.564;2022-08-21T07:02:25;100376.63;;;18.10;64.17
46223;BME280;31943;51.410;7.564;2022-08-21T07:04:52;100374.94;;;18.06;64.46
46223;BME280;31943;51.410;7.564;2022-08-21T07:07:17;100368.75;;;18.07;64.90
46223;BME280;31943;51.410;7.564;2022-08-21T07:09:43;100382.63;;;18.18;64.68
46223;BME280;31943;51.410;7.564;2022-08-21T07:12:09;100371.94;;;18.24;64.75
46223;BME280;31943;51.410;7.564;2022-08-21T07:14:35;100370.78;;;18.39;64.34
46223;BME280;31943;51.410;7.564;2022-08-21T07:17:00;100378.41;;;18.54;64.01
46223;BME280;31943;51.410;7.564;2022-08-21T07:19:26;100374.63;;;18.66;63.65
46223;BME280;31943;51.410;7.564;2022-08-21T07:21:57;100364.66;;;18.81;63.01
46223;BME280;31943;51.410;7.564;2022-08-21T07:24:23;100367.03;;;18.91;62.97
46223;BME280;31943;51.410;7.564;2022-08-21T07:26:48;100381.81;;;19.02;62.14
46223;BME280;31943;51.410;7.564;2022-08-21T07:29:14;100368.44;;;19.08;62.05
46223;BME280;31943;51.410;7.564;2022-08-21T07:31:40;100371.72;;;19.19;62.17
46223;BME280;31943;51.410;7.564;2022-08-21T07:34:05;100367.94;;;19.29;61.74
46223;BME280;31943;51.410;7.564;2022-08-21T07:36:31;100364.97;;;19.43;61.24
46223;BME280;31943;51.410;7.564;2022-08-21T07:38:58;100369.88;;;19.59;61.06
46223;BME280;31943;51.410;7.564;2022-08-21T07:41:27;100363.16;;;19.80;60.57
46223;BME280;31943;51.410;7.564;2022-08-21T07:43:53;100371.50;;;19.99;60.60
46223;BME280;31943;51.410;7.564;2022-08-21T07:46:18;100368.56;;;20.09;59.44
46223;BME280;31943;51.410;7.564;2022-08-21T07:48:44;100369.19;;;20.19;58.83
46223;BME280;31943;51.410;7.564;2022-08-21T07:51:13;100367.06;;;20.32;58.62
46223;BME280;31943;51.410;7.564;2022-08-21T07:53:39;100370.91;;;20.51;58.84
46223;BME280;31943;51.410;7.564;2022-08-21T07:56:07;100363.41;;;20.67;57.83
46223;BME280;31943;51.410;7.564;2022-08-21T07:58:32;100368.19;;;20.86;57.58
46223;BME280;31943;51.410;7.564;2022-08-21T08:00:58;100367.94;;;20.93;56.27
46223;BME280;31943;51.410;7.564;2022-08-21T08:03:24;100365.72;;;21.08;56.08
46223;BME280;31943;51.410;7.564;2022-08-21T08:05:50;100359.81;;;21.26;56.03
46223;BME280;31943;51.410;7.564;2022-08-21T08:08:15;100365.47;;;21.44;55.28
46223;BME280;31943;51.410;7.564;2022-08-21T08:10:41;100364.19;;;21.56;54.12
46223;BME280;31943;51.410;7.564;2022-08-21T08:13:09;100363.69;;;21.71;54.12
46223;BME280;31943;51.410;7.564;2022-08-21T08:15:36;100367.38;;;21.92;53.21
46223;BME280;31943;51.410;7.564;2022-08-21T08:18:02;100352.84;;;22.02;53.46
46223;BME280;31943;51.410;7.564;2022-08-21T08:20:28;100353.38;;;22.12;52.80
46223;BME280;31943;51.410;7.564;2022-08-21T08:22:54;100355.66;;;22.23;51.91
46223;BME280;31943;51.410;7.564;2022-08-21T08:25:25;100355.19;;;22.37;51.15
46223;BME280;31943;51.410;7.564;2022-08-21T08:27:51;100347.75;;;22.46;51.77
46223;BME280;31943;51.410;7.564;2022-08-21T08:30:19;100351.81;;;22.55;51.85
46223;BME280;31943;51.410;7.564;2022-08-21T08:32:45;100343.84;;;22.55;49.97
46223;BME280;31943;51.410;7.564;2022-08-21T08:35:12;100343.03;;;22.53;50.10
46223;BME280;31943;51.410;7.564;2022-08-21T08:37:38;100349.16;;;22.55;50.17
46223;BME280;31943;51.410;7.564;2022-08-21T08:40:05;100345.59;;;22.56;49.10
46223;BME280;31943;51.410;7.564;2022-08-21T08:42:33;100353.44;;;22.59;49.09
46223;BME280;31943;51.410;7.564;2022-08-21T08:45:02;100344.47;;;22.62;48.98
46223;BME280;31943;51.410;7.564;2022-08-21T08:47:32;100348.34;;;22.77;49.23
46223;BME280;31943;51.410;7.564;2022-08-21T08:50:04;100342.69;;;22.62;49.15
46223;BME280;31943;51.410;7.564;2022-08-21T08:52:31;100350.91;;;22.33;50.08
46223;BME280;31943;51.410;7.564;2022-08-21T08:55:02;100346.69;;;22.50;49.13
46223;BME280;31943;51.410;7.564;2022-08-21T08:57:29;100345.13;;;22.68;48.01
46223;BME280;31943;51.410;7.564;2022-08-21T08:59:56;100340.97;;;22.83;46.89
46223;BME280;31943;51.410;7.564;2022-08-21T09:02:23;100343.09;;;22.97;47.06
46223;BME280;31943;51.410;7.564;2022-08-21T09:04:51;100345.38;;;23.08;46.37
46223;BME280;31943;51.410;7.564;2022-08-21T09:07:25;100344.81;;;22.76;47.02
46223;BME280;31943;51.410;7.564;2022-08-21T09:10:05;100346.94;;;22.44;47.74
46223;BME280;31943;51.410;7.564;2022-08-21T09:12:39;100336.50;;;22.38;48.18
46223;BME280;31943;51.410;7.564;2022-08-21T09:15:15;100329.56;;;22.58;47.89
46223;BME280;31943;51.410;7.564;2022-08-21T09:18:02;100329.50;;;22.59;47.84
46223;BME280;31943;51.410;7.564;2022-08-21T09:20:37;100335.25;;;22.48;48.54
46223;BME280;31943;51.410;7.564;2022-08-21T09:23:19;100325.03;;;22.60;47.63
46223;BME280;31943;51.410;7.564;2022-08-21T09:25:55;100326.78;;;22.61;48.11
46223;BME280;31943;51.410;7.564;2022-08-21T09:28:24;100324.53;;;22.50;47.87
46223;BME280;31943;51.410;7.564;2022-08-21T09:30:54;100317.03;;;22.83;47.33
46223;BME280;31943;51.410;7.564;2022-08-21T09:33:20;100321.72;;;23.22;46.12
46223;BME280;31943;51.410;7.564;2022-08-21T09:35:53;100316.84;;;23.54;45.22
46223;BME280;31943;51.410;7.564;2022-08-21T09:38:28;100313.16;;;23.77;44.04
46223;BME280;31943;51.410;7.564;2022-08-21T09:41:00;100308.06;;;23.93;43.38
46223;BME280;31943;51.410;7.564;2022-08-21T09:43:26;100313.25;;;23.96;42.94
46223;BME280;31943;51.410;7.564;2022-08-21T09:46:03;100304.72;;;24.08;41.79
46223;BME280;31943;51.410;7.564;2022-08-21T09:48:29;100312.00;;;24.24;41.33
46223;BME280;31943;51.410;7.564;2022-08-21T09:51:06;100311.78;;;24.28;41.57
46223;BME280;31943;51.410;7.564;2022-08-21T09:53:33;100320.81;;;24.26;41.17
46223;BME280;31943;51.410;7.564;2022-08-21T09:56:02;100310.66;;;24.34;40.47
46223;BME280;31943;51.410;7.564;2022-08-21T09:58:31;100307.78;;;24.39;40.23
46223;BME280;31943;51.410;7.564;2022-08-21T10:01:00;100316.59;;;24.41;40.94
46223;BME280;31943;51.410;7.564;2022-08-21T10:03:26;100310.63;;;24.55;40.55
46223;BME280;31943;51.410;7.564;2022-08-21T10:05:57;100298.81;;;24.60;39.82
46223;BME280;31943;51.410;7.564;2022-08-21T10:08:26;100309.06;;;24.51;40.48
46223;BME280;31943;51.410;7.564;2022-08-21T10:10:55;100302.38;;;24.40;40.31
46223;BME280;31943;51.410;7.564;2022-08-21T10:13:27;100302.66;;;24.34;40.94
46223;BME280;31943;51.410;7.564;2022-08-21T10:16:02;100303.72;;;24.30;41.20
46223;BME280;31943;51.410;7.564;2022-08-21T10:18:36;100296.88;;;24.24;40.95
46223;BME280;31943;51.410;7.564;2022-08-21T10:21:09;100293.50;;;24.40;40.84
46223;BME280;31943;51.410;7.564;2022-08-21T10:23:46;100300.09;;;24.71;40.25
46223;BME280;31943;51.410;7.564;2022-08-21T10:26:27;100286.75;;;24.90;39.68
46223;BME280;31943;51.410;7.564;2022-08-21T10:29:02;100292.31;;;25.02;40.01
46223;BME280;31943;51.410;7.564;2022-08-21T10:31:32;100288.34;;;25.11;38.87
46223;BME280;31943;51.410;7.564;2022-08-21T10:34:10;100280.09;;;25.16;37.86
46223;BME280;31943;51.410;7.564;2022-08-21T10:36:41;100287.38;;;25.12;38.11
46223;BME280;31943;51.410;7.564;2022-08-21T10:39:17;100280.69;;;25.22;38.10
46223;BME280;31943;51.410;7.564;2022-08-21T10:42:00;100284.72;;;25.31;39.19
46223;BME280;31943;51.410;7.564;2022-08-21T10:44:34;100282.34;;;25.42;38.35
46223;BME280;31943;51.410;7.564;2022-08-21T10:47:04;100277.88;;;25.43;38.70
46223;BME280;31943;51.410;7.564;2022-08-21T10:49:39;100282.81;;;25.33;38.49
46223;BME280;31943;51.410;7.564;2022-08-21T10:52:25;100271.03;;;25.37;38.65
46223;BME280;31943;51.410;7.564;2022-08-21T10:54:59;100274.16;;;25.45;38.96
46223;BME280;31943;51.410;7.564;2022-08-21T10:57:34;100270.38;;;25.67;38.46
46223;BME280;31943;51.410;7.564;2022-08-21T11:00:06;100267.47;;;25.72;37.33
46223;BME280;31943;51.410;7.564;2022-08-21T11:02:37;100265.81;;;25.69;38.08
46223;BME280;31943;51.410;7.564;2022-08-21T11:05:09;100265.59;;;25.74;38.28
46223;BME280;31943;51.410;7.564;2022-08-21T11:07:42;100268.16;;;25.75;38.00
46223;BME280;31943;51.410;7.564;2022-08-21T11:10:16;100268.72;;;25.82;37.65
46223;BME280;31943;51.410;7.564;2022-08-21T11:12:48;100267.59;;;25.86;37.13
46223;BME280;31943;51.410;7.564;2022-08-21T11:15:27;100255.75;;;25.92;37.68
46223;BME280;31943;51.410;7.564;2022-08-21T11:18:00;100263.78;;;25.92;36.63
46223;BME280;31943;51.410;7.564;2022-08-21T11:20:30;100264.50;;;25.95;35.53
46223;BME280;31943;51.410;7.564;2022-08-21T11:23:02;100263.81;;;26.08;36.72
46223;BME280;31943;51.410;7.564;2022-08-21T11:25:34;100252.84;;;26.12;37.05
46223;BME280;31943;51.410;7.564;2022-08-21T11:28:03;100259.84;;;26.15;36.00
46223;BME280;31943;51.410;7.564;2022-08-21T11:30:38;100256.84;;;26.21;35.46
46223;BME280;31943;51.410;7.564;2022-08-21T11:33:21;100257.72;;;26.21;35.56
46223;BME280;31943;51.410;7.564;2022-08-21T11:35:50;100258.66;;;26.20;36.25
46223;BME280;31943;51.410;7.564;2022-08-21T11:38:27;100254.34;;;26.18;35.47
46223;BME280;31943;51.410;7.564;2022-08-21T11:41:03;100254.34;;;26.18;36.02
46223;BME280;31943;51.410;7.564;2022-08-21T11:43:37;100257.44;;;26.10;35.91
46223;BME280;31943;51.410;7.564;2022-08-21T11:46:17;100258.06;;;26.15;36.58
46223;BME280;31943;51.410;7.564;2022-08-21T11:48:53;100256.75;;;26.22;35.90
46223;BME280;31943;51.410;7.564;2022-08-21T11:51:26;100250.72;;;26.19;35.88
46223;BME280;31943;51.410;7.564;2022-08-21T11:53:58;100258.28;;;26.11;35.41
46223;BME280;31943;51.410;7.564;2022-08-21T11:56:33;100258.38;;;26.09;35.18
46223;BME280;31943;51.410;7.564;2022-08-21T11:59:04;100259.59;;;26.03;35.30
46223;BME280;31943;51.410;7.564;2022-08-21T12:01:36;100260.94;;;25.95;35.94
46223;BME280;31943;51.410;7.564;2022-08-21T12:04:07;100263.38;;;25.99;36.71
46223;BME280;31943;51.410;7.564;2022-08-21T12:06:37;100261.84;;;26.11;35.70
46223;BME280;31943;51.410;7.564;2022-08-21T12:09:05;100265.28;;;26.13;36.29
46223;BME280;31943;51.410;7.564;2022-08-21T12:11:46;100268.34;;;26.23;34.74
46223;BME280;31943;51.410;7.564;2022-08-21T12:14:14;100261.72;;;26.13;35.47
46223;BME280;31943;51.410;7.564;2022-08-21T12:16:41;100270.59;;;26.31;35.13
46223;BME280;31943;51.410;7.564;2022-08-21T12:19:09;100270.25;;;26.37;34.82
46223;BME280;31943;51.410;7.564;2022-08-21T12:21:49;100256.00;;;26.52;34.93
46223;BME280;31943;51.410;7.564;2022-08-21T12:24:20;100254.34;;;26.50;34.30
46223;BME280;31943;51.410;7.564;2022-08-21T12:26:58;100257.28;;;26.45;34.48
46223;BME280;31943;51.410;7.564;2022-08-21T12:29:26;100261.78;;;26.44;34.91
46223;BME280;31943;51.410;7.564;2022-08-21T12:31:56;100251.16;;;26.43;34.43
46223;BME280;31943;51.410;7.564;2022-08-21T12:34:29;100252.78;;;26.30;35.31
46223;BME280;31943;51.410;7.564;2022-08-21T12:36:59;100250.63;;;26.36;35.51
46223;BME280;31943;51.410;7.564;2022-08-21T12:39:27;100247.09;;;26.36;35.40
46223;BME280;31943;51.410;7.564;2022-08-21T12:41:59;100247.44;;;26.46;34.99
46223;BME280;31943;51.410;7.564;2022-08-21T12:44:33;100242.63;;;26.52;34.48
46223;BME280;31943;51.410;7.564;2022-08-21T12:47:04;100248.06;;;26.51;34.12
46223;BME280;31943;51.410;7.564;2022-08-21T12:49:33;100249.44;;;26.42;34.39
46223;BME280;31943;51.410;7.564;2022-08-21T12:52:03;100248.44;;;26.60;33.93
46223;BME280;31943;51.410;7.564;2022-08-21T12:54:39;100235.78;;;26.94;33.58
46223;BME280;31943;51.410;7.564;2022-08-21T12:57:08;100247.13;;;27.14;33.10